Time;durP1;ratioP1;P1;durP2;ratioP2;P2;SDS_P1;SDS_P2;PMS_P1;PMS_P2;Temp;Humidity;BMP_temperature;BMP_pressure;BME280_temperature;BME280_humidity;BME280_pressure;Samples;Min_cycle;Max_cycle;Signal;HPM_P1;HPM_P2
2022/11/18 00:00:27;;;;;;;;;4.50;4.50;;;;;;;;5080029;27;45228;-77
2022/11/18 00:02:53;;;;;;;;;4.25;4.25;;;;;;;;5080570;27;45378;-78
2022/11/18 00:05:18;;;;;;;;;3.75;2.75;;;;;;;;5080208;27;45195;-77
2022/11/18 00:07:43;;;;;;;;;4.00;4.00;;;;;;;;5082166;27;45591;-78
2022/11/18 00:10:08;;;;;;;;;10.00;10.00;;;;;;;;5086971;27;45519;-78
2022/11/18 00:15:18;;;;;;;;;4.50;2.00;;;;;;;;5087208;27;45181;-77
2022/11/18 00:17:43;;;;;;;;;3.00;3.00;;;;;;;;5096470;27;45676;-77
2022/11/18 00:20:08;;;;;;;;;2.00;2.00;;;;;;;;5082704;27;45195;-77
2022/11/18 00:22:33;;;;;;;;;6.75;4.00;;;;;;;;5081877;27;45315;-77
2022/11/18 00:24:58;;;;;;;;;2.00;2.00;;;;;;;;5090670;27;45291;-78
2022/11/18 00:27:24;;;;;;;;;2.00;2.00;;;;;;;;5083869;27;45427;-77
2022/11/18 00:29:49;;;;;;;;;3.00;1.50;;;;;;;;5079595;28;45392;-77
2022/11/18 00:32:14;;;;;;;;;3.50;3.50;;;;;;;;5079382;27;45615;-77
2022/11/18 00:34:41;;;;;;;;;0.50;0.50;;;;;;;;5090415;27;45300;-77
2022/11/18 00:37:06;;;;;;;;;2.00;1.00;;;;;;;;5081715;27;45527;-77
2022/11/18 00:39:31;;;;;;;;;2.00;1.00;;;;;;;;5078716;27;47434;-77
2022/11/18 00:44:40;;;;;;;;;1.00;1.00;;;;;;;;5079416;28;45378;-76
2022/11/18 00:47:05;;;;;;;;;1.00;1.00;;;;;;;;5080685;27;45461;-77
2022/11/18 00:49:31;;;;;;;;;2.00;2.00;;;;;;;;5098315;27;46136;-76
2022/11/18 00:51:56;;;;;;;;;1.00;1.00;;;;;;;;5091030;27;45402;-76
2022/11/18 00:54:21;;;;;;;;;1.00;1.00;;;;;;;;5084451;27;45408;-76
2022/11/18 00:56:46;;;;;;;;;1.25;0.25;;;;;;;;5092958;27;45479;-77
2022/11/18 00:59:11;;;;;;;;;2.00;1.00;;;;;;;;5079089;27;45256;-77
2022/11/18 01:01:37;;;;;;;;;4.00;1.25;;;;;;;;5078977;27;45434;-77
2022/11/18 01:04:02;;;;;;;;;0.00;0.00;;;;;;;;5092608;27;45331;-77
2022/11/18 01:06:27;;;;;;;;;2.50;0.50;;;;;;;;5088711;27;45280;-76
2022/11/18 01:08:53;;;;;;;;;1.00;1.00;;;;;;;;5078949;27;46373;-77
2022/11/18 01:14:02;;;;;;;;;2.00;1.25;;;;;;;;5087237;27;45436;-77
2022/11/18 01:16:28;;;;;;;;;1.00;1.00;;;;;;;;5078342;27;45314;-77
2022/11/18 01:18:54;;;;;;;;;1.00;1.00;;;;;;;;5089288;27;47961;-76
2022/11/18 01:21:19;;;;;;;;;1.25;1.25;;;;;;;;5078808;28;46485;-77
2022/11/18 01:23:44;;;;;;;;;1.50;1.50;;;;;;;;5083776;27;45414;-77
2022/11/18 01:26:11;;;;;;;;;1.00;1.00;;;;;;;;5078678;27;45494;-77
2022/11/18 01:28:36;;;;;;;;;2.00;1.00;;;;;;;;5086300;27;46730;-77
2022/11/18 01:31:04;;;;;;;;;1.25;0.25;;;;;;;;5079630;28;44744;-77
2022/11/18 01:33:29;;;;;;;;;3.00;0.25;;;;;;;;5084075;27;45360;-76
2022/11/18 01:35:55;;;;;;;;;0.50;0.50;;;;;;;;5093469;27;45327;-76
2022/11/18 01:38:20;;;;;;;;;3.25;1.00;;;;;;;;5087881;27;45330;-76
2022/11/18 01:40:45;;;;;;;;;1.00;1.00;;;;;;;;5091970;27;45363;-76
2022/11/18 01:43:16;;;;;;;;;0.00;0.00;;;;;;;;5082925;27;45482;-76
2022/11/18 01:45:42;;;;;;;;;0.00;0.00;;;;;;;;5081061;27;45235;-76
2022/11/18 01:48:07;;;;;;;;;0.25;0.25;;;;;;;;5080833;27;46338;-76
2022/11/18 01:50:34;;;;;;;;;0.00;0.00;;;;;;;;5078603;28;45365;-76
2022/11/18 01:53:03;;;;;;;;;2.00;0.75;;;;;;;;5080665;27;45268;-76
2022/11/18 01:55:31;;;;;;;;;0.00;0.00;;;;;;;;5078401;27;45283;-76
2022/11/18 01:58:09;;;;;;;;;2.00;0.00;;;;;;;;5081884;27;45461;-76
2022/11/18 02:00:34;;;;;;;;;0.75;0.00;;;;;;;;5078288;28;45220;-76
2022/11/18 02:03:01;;;;;;;;;0.25;0.25;;;;;;;;5082415;27;45398;-77
2022/11/18 02:05:26;;;;;;;;;0.00;0.00;;;;;;;;5083049;27;45358;-76
2022/11/18 02:07:52;;;;;;;;;1.50;0.00;;;;;;;;5084852;27;45366;-76
2022/11/18 02:10:20;;;;;;;;;1.00;1.00;;;;;;;;5103117;27;45427;-76
2022/11/18 02:12:46;;;;;;;;;1.00;1.00;;;;;;;;5094357;27;45334;-76
2022/11/18 02:15:11;;;;;;;;;1.00;0.00;;;;;;;;5081624;27;45253;-76
2022/11/18 02:17:36;;;;;;;;;1.50;0.00;;;;;;;;5093660;27;45480;-76
2022/11/18 02:20:08;;;;;;;;;0.25;0.25;;;;;;;;5081938;28;45204;-76
2022/11/18 02:22:45;;;;;;;;;0.00;0.00;;;;;;;;5082114;27;45348;-77
2022/11/18 02:25:22;;;;;;;;;1.00;1.00;;;;;;;;5097269;27;45612;-76
2022/11/18 02:27:55;;;;;;;;;0.00;0.00;;;;;;;;5083847;27;45236;-76
2022/11/18 02:30:21;;;;;;;;;1.50;0.50;;;;;;;;5081721;27;45307;-76
2022/11/18 02:32:55;;;;;;;;;1.75;0.00;;;;;;;;5083533;27;45483;-76
2022/11/18 02:35:38;;;;;;;;;0.00;0.00;;;;;;;;5093674;27;45390;-76
2022/11/18 02:38:06;;;;;;;;;0.00;0.00;;;;;;;;5081224;27;45497;-77
2022/11/18 02:40:33;;;;;;;;;0.00;0.00;;;;;;;;5085682;27;45209;-76
2022/11/18 02:43:12;;;;;;;;;0.75;0.00;;;;;;;;5093477;27;45351;-76
2022/11/18 02:45:40;;;;;;;;;0.00;0.00;;;;;;;;5083273;27;45552;-76
2022/11/18 02:48:08;;;;;;;;;0.00;0.00;;;;;;;;5085716;27;45242;-76
2022/11/18 02:50:34;;;;;;;;;2.00;0.75;;;;;;;;5083727;27;45225;-76
2022/11/18 02:53:01;;;;;;;;;0.00;0.00;;;;;;;;5083386;27;45809;-76
2022/11/18 02:55:29;;;;;;;;;0.00;0.00;;;;;;;;5079421;27;45800;-76
2022/11/18 02:57:55;;;;;;;;;1.00;0.00;;;;;;;;5085200;27;45582;-76
2022/11/18 03:00:20;;;;;;;;;2.00;1.00;;;;;;;;5080857;27;45223;-76
2022/11/18 03:02:46;;;;;;;;;0.25;0.00;;;;;;;;5081007;27;45556;-76
2022/11/18 03:05:17;;;;;;;;;0.50;0.50;;;;;;;;5080983;27;45314;-77
2022/11/18 03:07:44;;;;;;;;;1.00;0.75;;;;;;;;5081830;27;45444;-76
2022/11/18 03:10:10;;;;;;;;;2.00;0.00;;;;;;;;5088239;27;45294;-76
2022/11/18 03:12:41;;;;;;;;;2.00;1.00;;;;;;;;5083026;27;45188;-76
2022/11/18 03:15:19;;;;;;;;;0.50;0.50;;;;;;;;5089264;27;45314;-77
2022/11/18 03:17:51;;;;;;;;;0.25;0.00;;;;;;;;5092119;27;45346;-76
2022/11/18 03:20:20;;;;;;;;;0.00;0.00;;;;;;;;5083884;27;45397;-76
2022/11/18 03:23:06;;;;;;;;;1.00;0.00;;;;;;;;5090143;27;45204;-76
2022/11/18 03:25:53;;;;;;;;;0.00;0.00;;;;;;;;5082202;27;45296;-76
2022/11/18 03:28:45;;;;;;;;;1.00;0.75;;;;;;;;5087603;27;46243;-76
2022/11/18 03:31:15;;;;;;;;;0.75;0.00;;;;;;;;5062516;27;45225;-76
2022/11/18 03:33:46;;;;;;;;;1.00;0.00;;;;;;;;5083508;27;45354;-76
2022/11/18 03:36:12;;;;;;;;;0.00;0.00;;;;;;;;5082279;27;45894;-76
2022/11/18 03:38:41;;;;;;;;;1.00;0.00;;;;;;;;5082758;27;45311;-76
2022/11/18 03:41:08;;;;;;;;;2.00;0.00;;;;;;;;5082871;27;45354;-76
2022/11/18 03:43:36;;;;;;;;;0.00;0.00;;;;;;;;5082749;27;45334;-76
2022/11/18 03:46:05;;;;;;;;;0.00;0.00;;;;;;;;5079744;27;45481;-76
2022/11/18 03:48:33;;;;;;;;;0.00;0.00;;;;;;;;5082424;27;45519;-76
2022/11/18 03:51:00;;;;;;;;;0.75;0.75;;;;;;;;5080086;27;45406;-76
2022/11/18 03:53:27;;;;;;;;;0.00;0.00;;;;;;;;5085461;27;45621;-76
2022/11/18 03:55:56;;;;;;;;;1.00;0.00;;;;;;;;5079952;27;44916;-76
2022/11/18 03:58:25;;;;;;;;;1.00;0.25;;;;;;;;5085534;27;46195;-76
2022/11/18 04:00:53;;;;;;;;;0.00;0.00;;;;;;;;5083042;27;45219;-76
2022/11/18 04:03:18;;;;;;;;;1.25;0.00;;;;;;;;5086577;27;45549;-76
2022/11/18 04:05:43;;;;;;;;;1.00;0.00;;;;;;;;5082604;27;45208;-76
2022/11/18 04:08:21;;;;;;;;;0.00;0.00;;;;;;;;5084586;27;45403;-76
2022/11/18 04:10:52;;;;;;;;;0.75;0.00;;;;;;;;5093184;27;45346;-76
2022/11/18 04:13:22;;;;;;;;;1.00;1.00;;;;;;;;5088460;27;45437;-76
2022/11/18 04:15:47;;;;;;;;;1.00;0.00;;;;;;;;5091527;27;45291;-76
2022/11/18 04:18:12;;;;;;;;;0.00;0.00;;;;;;;;5090118;27;45332;-76
2022/11/18 04:20:37;;;;;;;;;0.00;0.00;;;;;;;;5093458;27;45505;-76
2022/11/18 04:23:03;;;;;;;;;0.00;0.00;;;;;;;;5082666;27;45292;-76
2022/11/18 04:25:29;;;;;;;;;0.00;0.00;;;;;;;;5084533;27;45486;-75
2022/11/18 04:27:54;;;;;;;;;0.50;0.00;;;;;;;;5086268;27;47933;-77
2022/11/18 04:30:19;;;;;;;;;2.75;0.00;;;;;;;;5078906;28;45338;-77
2022/11/18 04:32:45;;;;;;;;;0.00;0.00;;;;;;;;5082650;27;45304;-76
2022/11/18 04:35:10;;;;;;;;;1.00;0.00;;;;;;;;5091444;27;45723;-76
2022/11/18 04:37:35;;;;;;;;;1.25;1.00;;;;;;;;5087497;27;45439;-76
2022/11/18 04:40:00;;;;;;;;;0.00;0.00;;;;;;;;5079561;27;45259;-76
2022/11/18 04:42:26;;;;;;;;;1.00;1.00;;;;;;;;5081871;27;45247;-76
2022/11/18 04:44:51;;;;;;;;;0.00;0.00;;;;;;;;5079085;27;45341;-76
2022/11/18 04:47:16;;;;;;;;;0.75;0.00;;;;;;;;5081524;27;45564;-76
2022/11/18 04:49:41;;;;;;;;;1.50;0.50;;;;;;;;5079826;27;45421;-76
2022/11/18 04:52:07;;;;;;;;;2.50;0.75;;;;;;;;5079341;27;45270;-76
2022/11/18 04:54:32;;;;;;;;;0.25;0.25;;;;;;;;5080932;27;45233;-76
2022/11/18 04:56:57;;;;;;;;;0.75;0.75;;;;;;;;5081585;27;47914;-76
2022/11/18 04:59:26;;;;;;;;;0.00;0.00;;;;;;;;5080078;27;45327;-76
2022/11/18 05:01:52;;;;;;;;;3.25;2.00;;;;;;;;5079134;27;45315;-75
2022/11/18 05:04:19;;;;;;;;;0.00;0.00;;;;;;;;5088014;27;45530;-76
2022/11/18 05:06:44;;;;;;;;;0.75;0.75;;;;;;;;5078965;27;46333;-76
2022/11/18 05:09:09;;;;;;;;;1.25;1.25;;;;;;;;5083593;27;45312;-76
2022/11/18 05:14:18;;;;;;;;;2.00;1.00;;;;;;;;5095463;27;45446;-76
2022/11/18 05:16:44;;;;;;;;;1.75;1.50;;;;;;;;5078803;27;45316;-75
2022/11/18 05:19:09;;;;;;;;;3.00;2.00;;;;;;;;5081100;27;45405;-76
2022/11/18 05:21:35;;;;;;;;;1.50;1.00;;;;;;;;5092493;27;45501;-76
2022/11/18 05:24:01;;;;;;;;;0.25;0.00;;;;;;;;5081632;27;45487;-75
2022/11/18 05:26:26;;;;;;;;;1.00;1.00;;;;;;;;5092012;27;45260;-76
2022/11/18 05:28:51;;;;;;;;;1.25;1.25;;;;;;;;5084619;27;45444;-76
2022/11/18 05:31:17;;;;;;;;;0.00;0.00;;;;;;;;5078997;27;45196;-78
2022/11/18 05:33:42;;;;;;;;;1.75;1.00;;;;;;;;5082067;27;45281;-78
2022/11/18 05:36:18;;;;;;;;;1.75;1.25;;;;;;;;5086931;27;46421;-76
2022/11/18 05:38:43;;;;;;;;;4.25;1.00;;;;;;;;5078604;27;45271;-76
2022/11/18 05:41:08;;;;;;;;;0.00;0.00;;;;;;;;5078741;28;45316;-76
2022/11/18 05:43:34;;;;;;;;;4.00;1.75;;;;;;;;5083960;27;45483;-76
2022/11/18 05:45:59;;;;;;;;;2.50;1.00;;;;;;;;5081911;27;45382;-75
2022/11/18 05:48:25;;;;;;;;;3.00;1.00;;;;;;;;5086010;27;45196;-75
2022/11/18 05:50:51;;;;;;;;;1.00;1.00;;;;;;;;5085095;27;45595;-75
2022/11/18 05:53:17;;;;;;;;;3.50;2.25;;;;;;;;5084855;27;45514;-74
2022/11/18 05:55:48;;;;;;;;;2.75;2.00;;;;;;;;5095265;27;46496;-75
2022/11/18 05:58:13;;;;;;;;;3.75;2.25;;;;;;;;5087602;27;45232;-75
2022/11/18 06:00:39;;;;;;;;;3.75;1.25;;;;;;;;5081598;27;45142;-74
2022/11/18 06:03:07;;;;;;;;;2.00;1.00;;;;;;;;5081383;27;46217;-75
2022/11/18 06:05:32;;;;;;;;;3.00;1.00;;;;;;;;5081830;27;45896;-75
2022/11/18 06:07:57;;;;;;;;;3.25;2.00;;;;;;;;5086816;27;45533;-75
2022/11/18 06:10:25;;;;;;;;;3.00;1.75;;;;;;;;5080306;27;45308;-75
2022/11/18 06:12:53;;;;;;;;;3.75;1.00;;;;;;;;5086293;27;45411;-75
2022/11/18 06:15:21;;;;;;;;;1.00;1.00;;;;;;;;5088011;27;45442;-74
2022/11/18 06:17:49;;;;;;;;;8.75;2.50;;;;;;;;5085681;27;45466;-77
2022/11/18 06:20:19;;;;;;;;;2.00;2.00;;;;;;;;5088912;27;45418;-77
2022/11/18 06:22:44;;;;;;;;;2.50;2.00;;;;;;;;5089322;27;45469;-74
2022/11/18 06:25:09;;;;;;;;;1.00;1.00;;;;;;;;5087831;27;45811;-77
2022/11/18 06:27:35;;;;;;;;;2.00;2.00;;;;;;;;5092943;27;45410;-77
2022/11/18 06:30:00;;;;;;;;;4.25;2.75;;;;;;;;5093745;27;45681;-76
2022/11/18 06:32:25;;;;;;;;;2.25;2.25;;;;;;;;5093576;27;45366;-75
2022/11/18 06:34:50;;;;;;;;;1.00;1.00;;;;;;;;5087882;27;46008;-76
2022/11/18 06:37:17;;;;;;;;;1.50;1.50;;;;;;;;5083581;27;45220;-73
2022/11/18 06:39:42;;;;;;;;;2.00;2.00;;;;;;;;5085844;27;45269;-75
2022/11/18 06:42:07;;;;;;;;;3.50;1.00;;;;;;;;5087549;27;45698;-75
2022/11/18 06:44:33;;;;;;;;;2.25;2.00;;;;;;;;5084836;27;45305;-74
2022/11/18 06:46:58;;;;;;;;;3.75;2.00;;;;;;;;5089378;27;45401;-74
2022/11/18 06:49:24;;;;;;;;;3.00;2.25;;;;;;;;5081810;27;45280;-74
2022/11/18 06:51:50;;;;;;;;;3.00;3.00;;;;;;;;5081341;27;45535;-73
2022/11/18 06:54:15;;;;;;;;;7.00;3.50;;;;;;;;5081840;27;46010;-75
2022/11/18 06:56:40;;;;;;;;;4.00;2.00;;;;;;;;5091151;27;45326;-72
2022/11/18 06:59:05;;;;;;;;;4.25;2.25;;;;;;;;5086387;27;45293;-77
2022/11/18 07:01:33;;;;;;;;;5.75;3.00;;;;;;;;5083614;27;45331;-75
2022/11/18 07:03:58;;;;;;;;;2.00;2.00;;;;;;;;5084642;27;45123;-75
2022/11/18 07:06:25;;;;;;;;;3.75;2.00;;;;;;;;5084091;27;45355;-74
2022/11/18 07:08:51;;;;;;;;;6.25;2.00;;;;;;;;5081651;27;45185;-78
2022/11/18 07:11:18;;;;;;;;;2.50;2.00;;;;;;;;5080943;27;45358;-76
2022/11/18 07:13:44;;;;;;;;;3.75;2.00;;;;;;;;5089800;27;45515;-75
2022/11/18 07:16:09;;;;;;;;;3.25;2.25;;;;;;;;5093336;27;45403;-74
2022/11/18 07:18:36;;;;;;;;;2.50;1.50;;;;;;;;5085098;27;45424;-75
2022/11/18 07:21:02;;;;;;;;;5.50;3.00;;;;;;;;5086388;27;46325;-76
2022/11/18 07:23:28;;;;;;;;;1.75;1.75;;;;;;;;5088227;27;45238;-75
2022/11/18 07:25:54;;;;;;;;;2.75;1.75;;;;;;;;5080665;27;45433;-75
2022/11/18 07:28:19;;;;;;;;;4.75;1.75;;;;;;;;5089249;27;45299;-74
2022/11/18 07:30:44;;;;;;;;;2.00;2.00;;;;;;;;5089676;27;45233;-75
2022/11/18 07:33:09;;;;;;;;;4.75;2.00;;;;;;;;5087640;27;45396;-75
2022/11/18 07:35:34;;;;;;;;;9.00;2.00;;;;;;;;5090274;27;45153;-75
2022/11/18 07:38:00;;;;;;;;;3.25;3.00;;;;;;;;5083220;27;45378;-75
2022/11/18 07:40:25;;;;;;;;;2.00;2.00;;;;;;;;5086854;27;46107;-75
2022/11/18 07:42:50;;;;;;;;;2.00;2.00;;;;;;;;5086631;27;45724;-75
2022/11/18 07:45:15;;;;;;;;;6.25;2.75;;;;;;;;5081294;27;45295;-74
2022/11/18 07:47:41;;;;;;;;;2.00;2.00;;;;;;;;5084673;27;45556;-75
2022/11/18 07:50:06;;;;;;;;;8.00;2.25;;;;;;;;5090259;27;45537;-75
2022/11/18 07:52:31;;;;;;;;;3.25;2.50;;;;;;;;5079236;27;46249;-74
2022/11/18 07:54:57;;;;;;;;;4.00;2.50;;;;;;;;5079152;27;45314;-75
2022/11/18 07:57:22;;;;;;;;;3.50;2.75;;;;;;;;5085641;27;45453;-75
2022/11/18 07:59:47;;;;;;;;;5.00;3.00;;;;;;;;5079861;27;45434;-74
2022/11/18 08:02:12;;;;;;;;;4.00;3.00;;;;;;;;5079674;27;45669;-75
2022/11/18 08:04:37;;;;;;;;;3.00;3.00;;;;;;;;5079134;27;45279;-75
2022/11/18 08:07:03;;;;;;;;;2.25;2.25;;;;;;;;5078642;27;45366;-75
2022/11/18 08:09:28;;;;;;;;;2.50;2.25;;;;;;;;5084021;27;45313;-74
2022/11/18 08:11:53;;;;;;;;;1.00;0.00;;;;;;;;5080284;27;46179;-74
2022/11/18 08:14:20;;;;;;;;;4.00;2.00;;;;;;;;5082183;27;45383;-75
2022/11/18 08:16:45;;;;;;;;;4.50;3.00;;;;;;;;5083013;27;45406;-74
2022/11/18 08:19:11;;;;;;;;;2.50;1.00;;;;;;;;5088009;27;45315;-74
2022/11/18 08:21:36;;;;;;;;;2.00;1.00;;;;;;;;5087308;27;45265;-74
2022/11/18 08:24:01;;;;;;;;;4.00;3.00;;;;;;;;5082136;27;45366;-74
2022/11/18 08:26:26;;;;;;;;;4.75;1.00;;;;;;;;5079591;27;45275;-74
2022/11/18 08:28:52;;;;;;;;;1.25;1.25;;;;;;;;5081870;27;45394;-75
2022/11/18 08:31:18;;;;;;;;;6.00;1.50;;;;;;;;5079261;27;45322;-76
2022/11/18 08:33:44;;;;;;;;;2.25;2.00;;;;;;;;5083096;27;45418;-74
2022/11/18 08:36:20;;;;;;;;;2.00;2.00;;;;;;;;5084939;27;45205;-74
2022/11/18 08:38:45;;;;;;;;;2.75;2.00;;;;;;;;5081665;27;45253;-74
2022/11/18 08:41:15;;;;;;;;;1.00;1.00;;;;;;;;5079068;27;46355;-74
2022/11/18 08:43:40;;;;;;;;;1.00;1.00;;;;;;;;5084780;27;45424;-75
2022/11/18 08:46:05;;;;;;;;;4.00;2.00;;;;;;;;5096643;27;45410;-75
2022/11/18 08:48:31;;;;;;;;;1.50;1.50;;;;;;;;5090456;27;45519;-74
2022/11/18 08:50:57;;;;;;;;;4.00;2.50;;;;;;;;5080153;27;46085;-74
2022/11/18 08:53:22;;;;;;;;;5.00;2.00;;;;;;;;5082947;27;45172;-75
2022/11/18 08:55:47;;;;;;;;;2.75;1.50;;;;;;;;5080755;28;45357;-75
2022/11/18 08:58:13;;;;;;;;;2.00;2.00;;;;;;;;5083477;27;45422;-76
2022/11/18 09:00:38;;;;;;;;;2.00;2.00;;;;;;;;5079588;27;45413;-75
2022/11/18 09:03:03;;;;;;;;;4.25;2.00;;;;;;;;5090518;27;45378;-75
2022/11/18 09:05:28;;;;;;;;;1.50;1.50;;;;;;;;5079347;27;45416;-75
2022/11/18 09:07:53;;;;;;;;;4.50;2.00;;;;;;;;5081488;27;45511;-75
2022/11/18 09:10:19;;;;;;;;;1.00;1.00;;;;;;;;5078840;27;45252;-75
2022/11/18 09:12:44;;;;;;;;;0.25;0.25;;;;;;;;5082956;27;45338;-76
2022/11/18 09:15:09;;;;;;;;;1.50;1.00;;;;;;;;5079056;28;45478;-76
2022/11/18 09:17:34;;;;;;;;;1.50;1.00;;;;;;;;5083491;27;45406;-75
2022/11/18 09:19:59;;;;;;;;;3.25;1.00;;;;;;;;5090711;27;45358;-76
2022/11/18 09:22:25;;;;;;;;;3.75;2.00;;;;;;;;5084380;27;45481;-76
2022/11/18 09:24:50;;;;;;;;;0.50;0.50;;;;;;;;5082635;27;45311;-76
2022/11/18 09:27:15;;;;;;;;;1.00;1.00;;;;;;;;5085035;27;45631;-77
2022/11/18 09:29:40;;;;;;;;;6.50;1.25;;;;;;;;5083450;27;45201;-77
2022/11/18 09:32:05;;;;;;;;;1.50;1.50;;;;;;;;5086664;27;45599;-78
2022/11/18 09:34:32;;;;;;;;;1.75;1.00;;;;;;;;5089577;27;45251;-77
2022/11/18 09:36:57;;;;;;;;;1.00;1.00;;;;;;;;5085030;27;45534;-77
2022/11/18 09:39:24;;;;;;;;;1.75;1.00;;;;;;;;5083073;27;46097;-76
2022/11/18 09:42:08;;;;;;;;;3.00;1.00;;;;;;;;5082237;27;45481;-76
2022/11/18 09:44:44;;;;;;;;;1.50;1.00;;;;;;;;5082074;27;45364;-77
2022/11/18 09:47:09;;;;;;;;;3.50;2.00;;;;;;;;5084146;27;45537;-75
2022/11/18 09:49:36;;;;;;;;;1.80;1.80;;;;;;;;5094902;27;45468;-75
2022/11/18 09:52:03;;;;;;;;;0.25;0.25;;;;;;;;5100250;27;45381;-76
2022/11/18 09:54:38;;;;;;;;;1.00;0.00;;;;;;;;5086807;27;45328;-76
2022/11/18 09:57:12;;;;;;;;;0.67;0.67;;;;;;;;5087565;27;45401;-75
2022/11/18 09:59:37;;;;;;;;;2.25;1.00;;;;;;;;5084709;27;46233;-76
2022/11/18 10:02:21;;;;;;;;;1.00;1.00;;;;;;;;5080532;27;45237;-76
2022/11/18 10:04:47;;;;;;;;;0.00;0.00;;;;;;;;5086060;27;45160;-76
2022/11/18 10:07:15;;;;;;;;;4.00;1.33;;;;;;;;5097240;27;45916;-74
2022/11/18 10:09:40;;;;;;;;;2.00;1.00;;;;;;;;5085352;27;47926;-77
2022/11/18 10:12:24;;;;;;;;;1.00;1.00;;;;;;;;5083445;27;45358;-75
2022/11/18 10:14:59;;;;;;;;;2.67;0.00;;;;;;;;5084651;27;45277;-76
2022/11/18 10:17:32;;;;;;;;;0.00;0.00;;;;;;;;5093867;27;47324;-75
2022/11/18 10:20:17;;;;;;;;;3.67;1.00;;;;;;;;5091768;27;45308;-75
2022/11/18 10:22:55;;;;;;;;;3.00;0.00;;;;;;;;5083770;27;45218;-75
2022/11/18 10:25:20;;;;;;;;;1.67;1.00;;;;;;;;5081757;27;45394;-75
2022/11/18 10:27:46;;;;;;;;;2.00;2.00;;;;;;;;5081825;27;45382;-75
2022/11/18 10:30:13;;;;;;;;;1.67;0.67;;;;;;;;5081035;27;46502;-75
2022/11/18 10:32:52;;;;;;;;;0.00;0.00;;;;;;;;5083300;27;45315;-75
2022/11/18 10:35:29;;;;;;;;;1.00;1.00;;;;;;;;5083421;27;45230;-75
2022/11/18 10:38:05;;;;;;;;;3.00;2.00;;;;;;;;5083587;27;45269;-75
2022/11/18 10:40:30;;;;;;;;;1.00;1.00;;;;;;;;5081444;27;45528;-76
2022/11/18 10:42:56;;;;;;;;;1.67;1.00;;;;;;;;5083495;27;45232;-75
2022/11/18 10:45:21;;;;;;;;;0.00;0.00;;;;;;;;5081411;27;45248;-75
2022/11/18 10:48:05;;;;;;;;;1.00;1.00;;;;;;;;5083662;27;45328;-75
2022/11/18 10:50:35;;;;;;;;;2.00;0.00;;;;;;;;5083001;27;45197;-76
2022/11/18 10:53:00;;;;;;;;;2.00;1.00;;;;;;;;5084972;27;45287;-76
2022/11/18 10:55:27;;;;;;;;;4.33;1.00;;;;;;;;5080345;28;46358;-76
2022/11/18 10:57:57;;;;;;;;;1.33;1.00;;;;;;;;5086251;27;45277;-75
2022/11/18 11:00:36;;;;;;;;;3.67;1.00;;;;;;;;5080690;27;45373;-76
2022/11/18 11:03:20;;;;;;;;;4.67;2.33;;;;;;;;5085683;27;45291;-76
2022/11/18 11:05:45;;;;;;;;;3.00;1.00;;;;;;;;5081052;27;45267;-75
2022/11/18 11:08:18;;;;;;;;;2.00;2.00;;;;;;;;5083429;27;45311;-75
2022/11/18 11:10:57;;;;;;;;;2.00;2.00;;;;;;;;5080916;27;45321;-75
2022/11/18 11:13:26;;;;;;;;;2.33;0.67;;;;;;;;5083254;27;45296;-76
2022/11/18 11:15:54;;;;;;;;;4.00;1.00;;;;;;;;5080612;27;45261;-77
2022/11/18 11:21:09;;;;;;;;;0.00;0.00;;;;;;;;5092614;27;45304;-76
2022/11/18 11:23:34;;;;;;;;;2.00;1.00;;;;;;;;5088090;27;45285;-74
2022/11/18 11:26:02;;;;;;;;;2.00;0.00;;;;;;;;5085140;27;44664;-75
2022/11/18 11:28:30;;;;;;;;;0.00;0.00;;;;;;;;5081958;27;45743;-75
2022/11/18 11:31:05;;;;;;;;;1.33;1.33;;;;;;;;5080363;27;45330;-75
2022/11/18 11:33:38;;;;;;;;;2.67;1.00;;;;;;;;5081771;27;45379;-74
2022/11/18 11:36:21;;;;;;;;;1.00;1.00;;;;;;;;5080511;27;45264;-75
2022/11/18 11:38:54;;;;;;;;;0.33;0.33;;;;;;;;5081729;27;45441;-77
2022/11/18 11:41:23;;;;;;;;;1.00;1.00;;;;;;;;5079818;27;46167;-75
2022/11/18 11:44:03;;;;;;;;;3.33;1.67;;;;;;;;5082457;27;45588;-74
2022/11/18 11:46:29;;;;;;;;;1.00;1.00;;;;;;;;5091513;27;45279;-75
2022/11/18 11:49:12;;;;;;;;;2.00;0.33;;;;;;;;5082546;27;45279;-75
2022/11/18 11:51:37;;;;;;;;;1.33;1.33;;;;;;;;5080297;27;45271;-75
2022/11/18 11:54:18;;;;;;;;;1.00;0.00;;;;;;;;5082528;27;45299;-75
2022/11/18 11:56:46;;;;;;;;;3.00;1.33;;;;;;;;5085981;27;45311;-74
2022/11/18 11:59:30;;;;;;;;;1.67;0.33;;;;;;;;5083718;27;46014;-75
2022/11/18 12:02:14;;;;;;;;;1.33;1.33;;;;;;;;5079738;27;45464;-75
2022/11/18 12:04:45;;;;;;;;;3.33;1.00;;;;;;;;5093579;27;45335;-75
2022/11/18 12:07:18;;;;;;;;;1.00;1.00;;;;;;;;5083865;27;45310;-75
2022/11/18 12:09:49;;;;;;;;;2.67;0.00;;;;;;;;5087253;27;45237;-75
2022/11/18 12:12:33;;;;;;;;;2.33;2.00;;;;;;;;5081228;27;45284;-80
2022/11/18 12:15:17;;;;;;;;;0.00;0.00;;;;;;;;5081031;27;45395;-77
2022/11/18 12:17:47;;;;;;;;;1.00;1.00;;;;;;;;5084498;27;45319;-76
2022/11/18 12:20:34;;;;;;;;;2.00;1.00;;;;;;;;5079499;27;45226;-77
2022/11/18 12:23:18;;;;;;;;;1.67;0.00;;;;;;;;5082144;27;45417;-78
2022/11/18 12:25:46;;;;;;;;;1.33;0.00;;;;;;;;5081522;27;45435;-76
2022/11/18 12:28:21;;;;;;;;;0.33;0.33;;;;;;;;5080349;27;45203;-78
2022/11/18 12:30:46;;;;;;;;;2.00;1.00;;;;;;;;5094497;27;45213;-79
2022/11/18 12:33:14;;;;;;;;;1.67;1.33;;;;;;;;5092261;27;45402;-79
2022/11/18 12:35:45;;;;;;;;;0.67;0.67;;;;;;;;5090327;27;45290;-79
2022/11/18 12:38:27;;;;;;;;;2.67;0.00;;;;;;;;5084034;27;45456;-76
2022/11/18 12:40:52;;;;;;;;;1.00;0.00;;;;;;;;5078729;27;45520;-76
2022/11/18 12:43:48;;;;;;;;;0.00;0.00;;;;;;;;5087577;27;45215;-77
2022/11/18 12:46:25;;;;;;;;;2.33;1.67;;;;;;;;5085016;27;45267;-77
2022/11/18 12:48:50;;;;;;;;;2.33;1.33;;;;;;;;5082017;27;45382;-76
2022/11/18 12:51:17;;;;;;;;;1.00;1.00;;;;;;;;5078864;28;45313;-77
2022/11/18 12:53:44;;;;;;;;;2.33;1.00;;;;;;;;5080185;27;45440;-79
2022/11/18 12:56:10;;;;;;;;;0.67;0.67;;;;;;;;5079647;27;45310;-79
2022/11/18 12:58:36;;;;;;;;;2.00;0.00;;;;;;;;5083438;27;44862;-80
2022/11/18 13:01:06;;;;;;;;;2.00;0.00;;;;;;;;5079227;28;45330;-80
2022/11/18 13:03:32;;;;;;;;;0.33;0.33;;;;;;;;5080401;27;45327;-79
2022/11/18 13:05:59;;;;;;;;;1.00;0.00;;;;;;;;5079112;27;45362;-79
2022/11/18 13:08:24;;;;;;;;;4.33;2.00;;;;;;;;5083031;27;45518;-77
2022/11/18 13:10:51;;;;;;;;;1.00;1.00;;;;;;;;5078929;27;45270;-77
2022/11/18 13:13:29;;;;;;;;;2.00;2.00;;;;;;;;5079530;27;45411;-77
2022/11/18 13:18:47;;;;;;;;;2.67;1.00;;;;;;;;5087917;27;45312;-78
2022/11/18 13:24:03;;;;;;;;;3.33;2.00;;;;;;;;5088107;27;45898;-77
2022/11/18 13:26:33;;;;;;;;;1.00;1.00;;;;;;;;5081855;28;45474;-77
2022/11/18 13:29:14;;;;;;;;;1.00;1.00;;;;;;;;5082683;27;45625;-80
2022/11/18 13:31:45;;;;;;;;;1.00;1.00;;;;;;;;5080862;27;44804;-78
2022/11/18 13:34:18;;;;;;;;;2.00;0.00;;;;;;;;5082281;27;45384;-77
2022/11/18 13:36:44;;;;;;;;;2.33;1.00;;;;;;;;5079006;27;45241;-78
2022/11/18 13:39:22;;;;;;;;;1.00;1.00;;;;;;;;5079961;27;45446;-77
2022/11/18 13:41:56;;;;;;;;;2.00;1.00;;;;;;;;5079226;27;45585;-77
2022/11/18 13:44:23;;;;;;;;;2.00;0.33;;;;;;;;5079520;27;45545;-77
2022/11/18 13:46:54;;;;;;;;;0.00;0.00;;;;;;;;5085385;27;45327;-77
2022/11/18 13:49:22;;;;;;;;;2.00;0.00;;;;;;;;5080686;27;46235;-77
2022/11/18 13:51:48;;;;;;;;;3.00;0.00;;;;;;;;5094176;27;45468;-80
2022/11/18 13:54:20;;;;;;;;;1.67;1.00;;;;;;;;5081405;27;45348;-78
2022/11/18 13:56:46;;;;;;;;;1.00;0.67;;;;;;;;5089006;27;45297;-77
2022/11/18 13:59:15;;;;;;;;;1.00;1.00;;;;;;;;5079747;27;45307;-77
2022/11/18 14:01:42;;;;;;;;;3.67;1.00;;;;;;;;5090554;27;45361;-77
2022/11/18 14:04:19;;;;;;;;;0.00;0.00;;;;;;;;5084689;27;45308;-77
2022/11/18 14:06:44;;;;;;;;;0.00;0.00;;;;;;;;5082348;27;45407;-76
2022/11/18 14:09:12;;;;;;;;;1.33;0.33;;;;;;;;5085776;27;45292;-78
2022/11/18 14:11:39;;;;;;;;;2.00;0.67;;;;;;;;5081581;27;44813;-77
2022/11/18 14:14:05;;;;;;;;;1.67;1.67;;;;;;;;5083810;27;46513;-76
2022/11/18 14:16:32;;;;;;;;;1.67;0.67;;;;;;;;5081340;27;45310;-77
2022/11/18 14:18:57;;;;;;;;;0.67;0.00;;;;;;;;5088411;27;45476;-76
2022/11/18 14:21:27;;;;;;;;;1.00;1.00;;;;;;;;5085554;27;46139;-77
2022/11/18 14:23:53;;;;;;;;;4.33;1.67;;;;;;;;5088697;27;45366;-77
2022/11/18 14:26:28;;;;;;;;;2.33;1.00;;;;;;;;5095215;27;45458;-78
2022/11/18 14:28:54;;;;;;;;;2.00;0.67;;;;;;;;5085454;27;45315;-77
2022/11/18 14:31:30;;;;;;;;;2.33;1.00;;;;;;;;5080916;27;45524;-75
2022/11/18 14:34:14;;;;;;;;;2.00;2.00;;;;;;;;5086098;27;45317;-75
2022/11/18 14:36:40;;;;;;;;;1.00;0.33;;;;;;;;5086381;27;45504;-75
2022/11/18 14:39:18;;;;;;;;;1.67;1.00;;;;;;;;5083963;27;45311;-77
2022/11/18 14:41:45;;;;;;;;;1.00;1.00;;;;;;;;5081883;27;44862;-76
2022/11/18 14:44:12;;;;;;;;;1.67;1.67;;;;;;;;5088370;27;45219;-75
2022/11/18 14:46:37;;;;;;;;;2.00;1.00;;;;;;;;5079563;27;45388;-77
2022/11/18 14:49:05;;;;;;;;;0.00;0.00;;;;;;;;5088160;27;45353;-75
2022/11/18 14:51:30;;;;;;;;;1.67;1.67;;;;;;;;5088636;27;45346;-76
2022/11/18 14:53:55;;;;;;;;;1.00;1.00;;;;;;;;5083868;27;47259;-77
2022/11/18 14:56:28;;;;;;;;;3.67;1.00;;;;;;;;5094155;27;45425;-75
2022/11/18 14:58:53;;;;;;;;;1.00;1.00;;;;;;;;5084947;27;45346;-75
2022/11/18 15:01:18;;;;;;;;;2.33;1.00;;;;;;;;5095024;27;46571;-75
2022/11/18 15:03:44;;;;;;;;;0.00;0.00;;;;;;;;5082539;27;45417;-75
2022/11/18 15:06:16;;;;;;;;;2.00;0.00;;;;;;;;5079379;27;45388;-75
2022/11/18 15:08:42;;;;;;;;;2.00;1.00;;;;;;;;5087389;27;45393;-75